sensor_id;sensor_type;location;lat;lon;timestamp;P1;durP1;ratioP1;P2;durP2;ratioP2
10442;SDS011;5269;51.146;16.986;2022-12-18T00:02:00;22.50;;;10.83;;
10442;SDS011;5269;51.146;16.986;2022-12-18T00:04:27;22.80;;;10.40;;
10442;SDS011;5269;51.146;16.986;2022-12-18T00:06:54;23.17;;;9.43;;
10442;SDS011;5269;51.146;16.986;2022-12-18T00:09:21;19.77;;;9.20;;
10442;SDS011;5269;51.146;16.986;2022-12-18T00:11:48;18.93;;;8.37;;
10442;SDS011;5269;51.146;16.986;2022-12-18T00:14:16;24.97;;;9.63;;
10442;SDS011;5269;51.146;16.986;2022-12-18T00:16:44;22.40;;;9.10;;
10442;SDS011;5269;51.146;16.986;2022-12-18T00:19:11;17.97;;;8.93;;
10442;SDS011;5269;51.146;16.986;2022-12-18T00:21:38;17.87;;;8.97;;
10442;SDS011;5269;51.146;16.986;2022-12-18T00:24:05;18.07;;;8.27;;
10442;SDS011;5269;51.146;16.986;2022-12-18T00:26:33;23.10;;;8.47;;
10442;SDS011;5269;51.146;16.986;2022-12-18T00:29:02;19.83;;;8.63;;
10442;SDS011;5269;51.146;16.986;2022-12-18T00:31:35;24.37;;;8.70;;
10442;SDS011;5269;51.146;16.986;2022-12-18T00:34:03;23.50;;;9.53;;
10442;SDS011;5269;51.146;16.986;2022-12-18T00:36:31;19.83;;;10.10;;
10442;SDS011;5269;51.146;16.986;2022-12-18T00:39:00;21.83;;;10.40;;
10442;SDS011;5269;51.146;16.986;2022-12-18T00:41:28;14.10;;;7.00;;
10442;SDS011;5269;51.146;16.986;2022-12-18T00:44:13;21.27;;;9.17;;
10442;SDS011;5269;51.146;16.986;2022-12-18T00:46:44;23.93;;;10.10;;
10442;SDS011;5269;51.146;16.986;2022-12-18T00:49:11;20.20;;;10.43;;
10442;SDS011;5269;51.146;16.986;2022-12-18T00:51:38;18.87;;;8.10;;
10442;SDS011;5269;51.146;16.986;2022-12-18T00:54:05;23.20;;;9.17;;
10442;SDS011;5269;51.146;16.986;2022-12-18T00:56:32;10.60;;;5.40;;
10442;SDS011;5269;51.146;16.986;2022-12-18T00:59:01;18.07;;;7.67;;
10442;SDS011;5269;51.146;16.986;2022-12-18T01:01:28;19.73;;;8.80;;
10442;SDS011;5269;51.146;16.986;2022-12-18T01:03:56;21.13;;;9.07;;
10442;SDS011;5269;51.146;16.986;2022-12-18T01:06:23;19.43;;;8.77;;
10442;SDS011;5269;51.146;16.986;2022-12-18T01:08:50;25.80;;;10.27;;
10442;SDS011;5269;51.146;16.986;2022-12-18T01:11:17;22.77;;;9.60;;
10442;SDS011;5269;51.146;16.986;2022-12-18T01:13:45;22.40;;;8.77;;
10442;SDS011;5269;51.146;16.986;2022-12-18T01:16:13;17.77;;;7.43;;
10442;SDS011;5269;51.146;16.986;2022-12-18T01:18:40;17.90;;;9.27;;
10442;SDS011;5269;51.146;16.986;2022-12-18T01:21:10;23.03;;;9.73;;
10442;SDS011;5269;51.146;16.986;2022-12-18T01:23:38;18.80;;;8.67;;
10442;SDS011;5269;51.146;16.986;2022-12-18T01:26:05;20.70;;;8.20;;
10442;SDS011;5269;51.146;16.986;2022-12-18T01:28:33;21.50;;;9.00;;
10442;SDS011;5269;51.146;16.986;2022-12-18T01:31:09;24.67;;;8.93;;
10442;SDS011;5269;51.146;16.986;2022-12-18T01:33:40;19.43;;;9.17;;
10442;SDS011;5269;51.146;16.986;2022-12-18T01:36:07;19.77;;;9.40;;
10442;SDS011;5269;51.146;16.986;2022-12-18T01:38:40;15.37;;;8.10;;
10442;SDS011;5269;51.146;16.986;2022-12-18T01:41:08;17.07;;;7.73;;
10442;SDS011;5269;51.146;16.986;2022-12-18T01:43:42;19.10;;;8.50;;
10442;SDS011;5269;51.146;16.986;2022-12-18T01:46:17;21.73;;;9.63;;
10442;SDS011;5269;51.146;16.986;2022-12-18T01:48:45;18.77;;;7.93;;
10442;SDS011;5269;51.146;16.986;2022-12-18T01:51:15;17.07;;;8.83;;
10442;SDS011;5269;51.146;16.986;2022-12-18T01:53:43;12.57;;;6.70;;
10442;SDS011;5269;51.146;16.986;2022-12-18T01:56:14;23.73;;;9.67;;
10442;SDS011;5269;51.146;16.986;2022-12-18T01:58:46;22.17;;;10.20;;
10442;SDS011;5269;51.146;16.986;2022-12-18T02:01:19;29.30;;;10.50;;
10442;SDS011;5269;51.146;16.986;2022-12-18T02:03:47;16.63;;;8.07;;
10442;SDS011;5269;51.146;16.986;2022-12-18T02:06:16;20.80;;;8.33;;
10442;SDS011;5269;51.146;16.986;2022-12-18T02:08:58;18.23;;;8.10;;
10442;SDS011;5269;51.146;16.986;2022-12-18T02:11:37;17.67;;;8.60;;
10442;SDS011;5269;51.146;16.986;2022-12-18T02:14:12;18.67;;;7.40;;
10442;SDS011;5269;51.146;16.986;2022-12-18T02:16:50;17.23;;;8.07;;
10442;SDS011;5269;51.146;16.986;2022-12-18T02:19:44;22.17;;;10.10;;
10442;SDS011;5269;51.146;16.986;2022-12-18T02:22:26;15.03;;;7.20;;
10442;SDS011;5269;51.146;16.986;2022-12-18T02:25:05;15.97;;;8.43;;
10442;SDS011;5269;51.146;16.986;2022-12-18T02:27:46;18.23;;;8.47;;
10442;SDS011;5269;51.146;16.986;2022-12-18T02:30:15;16.73;;;8.43;;
10442;SDS011;5269;51.146;16.986;2022-12-18T02:32:44;16.77;;;8.30;;
10442;SDS011;5269;51.146;16.986;2022-12-18T02:35:16;20.03;;;7.97;;
10442;SDS011;5269;51.146;16.986;2022-12-18T02:37:46;20.37;;;7.97;;
10442;SDS011;5269;51.146;16.986;2022-12-18T02:40:14;18.03;;;7.33;;
10442;SDS011;5269;51.146;16.986;2022-12-18T02:42:42;21.17;;;10.00;;
10442;SDS011;5269;51.146;16.986;2022-12-18T02:45:11;15.90;;;7.60;;
10442;SDS011;5269;51.146;16.986;2022-12-18T02:47:38;17.23;;;8.23;;
10442;SDS011;5269;51.146;16.986;2022-12-18T02:50:10;24.87;;;8.63;;
10442;SDS011;5269;51.146;16.986;2022-12-18T02:52:45;16.07;;;7.53;;
10442;SDS011;5269;51.146;16.986;2022-12-18T02:55:23;15.53;;;8.13;;
10442;SDS011;5269;51.146;16.986;2022-12-18T02:57:58;18.70;;;9.13;;
10442;SDS011;5269;51.146;16.986;2022-12-18T03:00:33;19.73;;;9.07;;
10442;SDS011;5269;51.146;16.986;2022-12-18T03:03:05;20.03;;;8.13;;
10442;SDS011;5269;51.146;16.986;2022-12-18T03:05:36;20.80;;;8.43;;
10442;SDS011;5269;51.146;16.986;2022-12-18T03:08:07;17.10;;;7.93;;
10442;SDS011;5269;51.146;16.986;2022-12-18T03:10:39;15.40;;;8.23;;
10442;SDS011;5269;51.146;16.986;2022-12-18T03:13:12;19.50;;;8.53;;
10442;SDS011;5269;51.146;16.986;2022-12-18T03:15:45;14.77;;;8.10;;
10442;SDS011;5269;51.146;16.986;2022-12-18T03:18:16;18.13;;;8.70;;
10442;SDS011;5269;51.146;16.986;2022-12-18T03:20:46;16.43;;;8.40;;
10442;SDS011;5269;51.146;16.986;2022-12-18T03:23:16;18.53;;;8.87;;
10442;SDS011;5269;51.146;16.986;2022-12-18T03:25:47;17.60;;;7.80;;
10442;SDS011;5269;51.146;16.986;2022-12-18T03:28:18;19.57;;;9.00;;
10442;SDS011;5269;51.146;16.986;2022-12-18T03:30:49;17.87;;;8.33;;
10442;SDS011;5269;51.146;16.986;2022-12-18T03:33:23;18.07;;;8.33;;
10442;SDS011;5269;51.146;16.986;2022-12-18T03:35:53;16.90;;;8.43;;
10442;SDS011;5269;51.146;16.986;2022-12-18T03:38:20;17.60;;;8.90;;
10442;SDS011;5269;51.146;16.986;2022-12-18T03:40:50;17.87;;;8.03;;
10442;SDS011;5269;51.146;16.986;2022-12-18T03:43:29;21.17;;;9.20;;
10442;SDS011;5269;51.146;16.986;2022-12-18T03:46:05;18.93;;;9.13;;
10442;SDS011;5269;51.146;16.986;2022-12-18T03:48:35;15.73;;;8.50;;
10442;SDS011;5269;51.146;16.986;2022-12-18T03:51:08;17.13;;;8.43;;
10442;SDS011;5269;51.146;16.986;2022-12-18T03:53:41;18.83;;;7.53;;
10442;SDS011;5269;51.146;16.986;2022-12-18T03:56:14;18.17;;;8.20;;
10442;SDS011;5269;51.146;16.986;2022-12-18T03:58:43;20.60;;;9.40;;
10442;SDS011;5269;51.146;16.986;2022-12-18T04:01:13;17.83;;;8.50;;
10442;SDS011;5269;51.146;16.986;2022-12-18T04:03:41;19.47;;;9.53;;
10442;SDS011;5269;51.146;16.986;2022-12-18T04:06:09;19.40;;;8.33;;
10442;SDS011;5269;51.146;16.986;2022-12-18T04:08:40;14.13;;;8.30;;
10442;SDS011;5269;51.146;16.986;2022-12-18T04:11:07;17.13;;;9.07;;
10442;SDS011;5269;51.146;16.986;2022-12-18T04:13:36;22.53;;;9.73;;
10442;SDS011;5269;51.146;16.986;2022-12-18T04:16:04;18.40;;;8.83;;
10442;SDS011;5269;51.146;16.986;2022-12-18T04:18:32;19.77;;;9.77;;
10442;SDS011;5269;51.146;16.986;2022-12-18T04:21:00;14.57;;;7.97;;
10442;SDS011;5269;51.146;16.986;2022-12-18T04:23:27;21.27;;;8.97;;
10442;SDS011;5269;51.146;16.986;2022-12-18T04:25:54;17.73;;;8.63;;
10442;SDS011;5269;51.146;16.986;2022-12-18T04:28:21;18.87;;;9.57;;
10442;SDS011;5269;51.146;16.986;2022-12-18T04:30:48;19.93;;;9.23;;
10442;SDS011;5269;51.146;16.986;2022-12-18T04:33:15;19.40;;;8.77;;
10442;SDS011;5269;51.146;16.986;2022-12-18T04:35:43;18.37;;;8.07;;
10442;SDS011;5269;51.146;16.986;2022-12-18T04:38:10;15.10;;;8.13;;
10442;SDS011;5269;51.146;16.986;2022-12-18T04:40:37;19.43;;;9.23;;
10442;SDS011;5269;51.146;16.986;2022-12-18T04:43:07;20.00;;;9.73;;
10442;SDS011;5269;51.146;16.986;2022-12-18T04:45:34;19.47;;;8.73;;
10442;SDS011;5269;51.146;16.986;2022-12-18T04:48:04;18.83;;;8.23;;
10442;SDS011;5269;51.146;16.986;2022-12-18T04:50:31;17.93;;;8.73;;
10442;SDS011;5269;51.146;16.986;2022-12-18T04:53:00;17.30;;;8.40;;
10442;SDS011;5269;51.146;16.986;2022-12-18T04:55:27;18.93;;;8.53;;
10442;SDS011;5269;51.146;16.986;2022-12-18T04:57:54;17.93;;;8.70;;
10442;SDS011;5269;51.146;16.986;2022-12-18T05:00:21;14.70;;;7.90;;
10442;SDS011;5269;51.146;16.986;2022-12-18T05:02:48;16.53;;;8.33;;
10442;SDS011;5269;51.146;16.986;2022-12-18T05:05:15;15.30;;;7.80;;
10442;SDS011;5269;51.146;16.986;2022-12-18T05:07:42;18.87;;;8.57;;
10442;SDS011;5269;51.146;16.986;2022-12-18T05:10:10;15.47;;;8.60;;
10442;SDS011;5269;51.146;16.986;2022-12-18T05:12:37;20.50;;;8.33;;
10442;SDS011;5269;51.146;16.986;2022-12-18T05:15:25;17.17;;;7.33;;
10442;SDS011;5269;51.146;16.986;2022-12-18T05:17:53;14.10;;;7.63;;
10442;SDS011;5269;51.146;16.986;2022-12-18T05:20:20;17.40;;;8.27;;
10442;SDS011;5269;51.146;16.986;2022-12-18T05:22:47;17.17;;;9.07;;
10442;SDS011;5269;51.146;16.986;2022-12-18T05:25:16;16.70;;;8.50;;
10442;SDS011;5269;51.146;16.986;2022-12-18T05:27:43;19.57;;;8.57;;
10442;SDS011;5269;51.146;16.986;2022-12-18T05:30:10;17.37;;;7.93;;
10442;SDS011;5269;51.146;16.986;2022-12-18T05:32:38;15.77;;;8.27;;
10442;SDS011;5269;51.146;16.986;2022-12-18T05:35:06;18.93;;;8.97;;
10442;SDS011;5269;51.146;16.986;2022-12-18T05:37:34;17.63;;;8.33;;
10442;SDS011;5269;51.146;16.986;2022-12-18T05:40:02;18.67;;;8.47;;
10442;SDS011;5269;51.146;16.986;2022-12-18T05:42:31;18.97;;;9.43;;
10442;SDS011;5269;51.146;16.986;2022-12-18T05:44:58;15.73;;;8.30;;
10442;SDS011;5269;51.146;16.986;2022-12-18T05:47:26;17.90;;;8.70;;
10442;SDS011;5269;51.146;16.986;2022-12-18T05:49:53;16.13;;;7.80;;
10442;SDS011;5269;51.146;16.986;2022-12-18T05:52:20;17.83;;;7.80;;
10442;SDS011;5269;51.146;16.986;2022-12-18T05:54:47;17.57;;;8.17;;
10442;SDS011;5269;51.146;16.986;2022-12-18T05:57:14;19.77;;;8.83;;
10442;SDS011;5269;51.146;16.986;2022-12-18T05:59:42;18.43;;;8.40;;
10442;SDS011;5269;51.146;16.986;2022-12-18T06:02:09;16.10;;;8.67;;
10442;SDS011;5269;51.146;16.986;2022-12-18T06:04:36;19.20;;;8.10;;
10442;SDS011;5269;51.146;16.986;2022-12-18T06:07:03;15.73;;;8.50;;
10442;SDS011;5269;51.146;16.986;2022-12-18T06:09:30;16.03;;;8.27;;
10442;SDS011;5269;51.146;16.986;2022-12-18T06:11:57;17.30;;;8.30;;
10442;SDS011;5269;51.146;16.986;2022-12-18T06:14:24;16.10;;;7.87;;
10442;SDS011;5269;51.146;16.986;2022-12-18T06:16:52;14.83;;;8.70;;
10442;SDS011;5269;51.146;16.986;2022-12-18T06:19:19;20.47;;;9.03;;
10442;SDS011;5269;51.146;16.986;2022-12-18T06:21:46;17.77;;;9.13;;
10442;SDS011;5269;51.146;16.986;2022-12-18T06:24:14;16.13;;;8.77;;
10442;SDS011;5269;51.146;16.986;2022-12-18T06:26:41;19.73;;;9.83;;
10442;SDS011;5269;51.146;16.986;2022-12-18T06:29:08;20.73;;;10.27;;
10442;SDS011;5269;51.146;16.986;2022-12-18T06:31:35;19.10;;;10.23;;
10442;SDS011;5269;51.146;16.986;2022-12-18T06:34:04;19.67;;;10.50;;
10442;SDS011;5269;51.146;16.986;2022-12-18T06:36:31;17.77;;;8.97;;
10442;SDS011;5269;51.146;16.986;2022-12-18T06:38:58;20.80;;;9.50;;
10442;SDS011;5269;51.146;16.986;2022-12-18T06:41:25;19.60;;;10.10;;
10442;SDS011;5269;51.146;16.986;2022-12-18T06:43:52;23.50;;;10.73;;
10442;SDS011;5269;51.146;16.986;2022-12-18T06:46:19;22.20;;;10.10;;
10442;SDS011;5269;51.146;16.986;2022-12-18T06:48:46;15.50;;;9.20;;
10442;SDS011;5269;51.146;16.986;2022-12-18T06:51:17;18.43;;;10.53;;
10442;SDS011;5269;51.146;16.986;2022-12-18T06:53:45;18.83;;;9.83;;
10442;SDS011;5269;51.146;16.986;2022-12-18T06:56:12;21.90;;;11.33;;
10442;SDS011;5269;51.146;16.986;2022-12-18T06:58:39;20.70;;;9.53;;
10442;SDS011;5269;51.146;16.986;2022-12-18T07:01:06;21.20;;;10.43;;
10442;SDS011;5269;51.146;16.986;2022-12-18T07:03:37;24.90;;;10.87;;
10442;SDS011;5269;51.146;16.986;2022-12-18T07:06:04;19.30;;;10.57;;
10442;SDS011;5269;51.146;16.986;2022-12-18T07:08:34;22.43;;;11.00;;
10442;SDS011;5269;51.146;16.986;2022-12-18T07:11:02;23.37;;;12.07;;
10442;SDS011;5269;51.146;16.986;2022-12-18T07:13:30;20.90;;;10.87;;
10442;SDS011;5269;51.146;16.986;2022-12-18T07:16:05;19.90;;;10.77;;
10442;SDS011;5269;51.146;16.986;2022-12-18T07:18:33;21.33;;;11.13;;
10442;SDS011;5269;51.146;16.986;2022-12-18T07:21:03;25.73;;;12.07;;
10442;SDS011;5269;51.146;16.986;2022-12-18T07:23:31;22.17;;;11.27;;
10442;SDS011;5269;51.146;16.986;2022-12-18T07:26:04;23.57;;;11.07;;
10442;SDS011;5269;51.146;16.986;2022-12-18T07:28:32;26.70;;;12.83;;
10442;SDS011;5269;51.146;16.986;2022-12-18T07:31:02;25.00;;;11.17;;
10442;SDS011;5269;51.146;16.986;2022-12-18T07:33:29;20.23;;;11.60;;
10442;SDS011;5269;51.146;16.986;2022-12-18T07:35:59;21.67;;;11.30;;
10442;SDS011;5269;51.146;16.986;2022-12-18T07:38:26;27.50;;;11.67;;
10442;SDS011;5269;51.146;16.986;2022-12-18T07:40:59;22.93;;;11.60;;
10442;SDS011;5269;51.146;16.986;2022-12-18T07:43:26;25.80;;;12.53;;
10442;SDS011;5269;51.146;16.986;2022-12-18T07:45:53;26.53;;;13.00;;
10442;SDS011;5269;51.146;16.986;2022-12-18T07:48:20;21.80;;;13.10;;
10442;SDS011;5269;51.146;16.986;2022-12-18T07:50:47;25.80;;;14.70;;
10442;SDS011;5269;51.146;16.986;2022-12-18T07:53:15;25.37;;;13.70;;
10442;SDS011;5269;51.146;16.986;2022-12-18T07:55:43;27.00;;;13.97;;
10442;SDS011;5269;51.146;16.986;2022-12-18T07:58:12;23.03;;;12.13;;
10442;SDS011;5269;51.146;16.986;2022-12-18T08:00:39;23.33;;;13.93;;
10442;SDS011;5269;51.146;16.986;2022-12-18T08:03:06;23.03;;;11.70;;
10442;SDS011;5269;51.146;16.986;2022-12-18T08:05:32;20.23;;;10.57;;
10442;SDS011;5269;51.146;16.986;2022-12-18T08:08:04;20.80;;;10.53;;
10442;SDS011;5269;51.146;16.986;2022-12-18T08:10:31;21.17;;;10.00;;
10442;SDS011;5269;51.146;16.986;2022-12-18T08:12:58;18.13;;;10.73;;
10442;SDS011;5269;51.146;16.986;2022-12-18T08:15:26;23.07;;;11.00;;
10442;SDS011;5269;51.146;16.986;2022-12-18T08:17:57;20.27;;;11.33;;
10442;SDS011;5269;51.146;16.986;2022-12-18T08:20:27;22.93;;;12.53;;
10442;SDS011;5269;51.146;16.986;2022-12-18T08:22:54;21.47;;;12.03;;
10442;SDS011;5269;51.146;16.986;2022-12-18T08:25:23;20.77;;;11.93;;
10442;SDS011;5269;51.146;16.986;2022-12-18T08:27:51;19.37;;;10.67;;
10442;SDS011;5269;51.146;16.986;2022-12-18T08:30:18;20.53;;;11.70;;
10442;SDS011;5269;51.146;16.986;2022-12-18T08:32:52;19.93;;;10.40;;
10442;SDS011;5269;51.146;16.986;2022-12-18T08:35:19;20.90;;;11.03;;
10442;SDS011;5269;51.146;16.986;2022-12-18T08:37:46;19.80;;;10.40;;
10442;SDS011;5269;51.146;16.986;2022-12-18T08:40:13;19.40;;;11.10;;
10442;SDS011;5269;51.146;16.986;2022-12-18T08:42:40;22.30;;;10.93;;
10442;SDS011;5269;51.146;16.986;2022-12-18T08:45:24;21.17;;;10.60;;
10442;SDS011;5269;51.146;16.986;2022-12-18T08:47:53;18.90;;;10.67;;
10442;SDS011;5269;51.146;16.986;2022-12-18T08:50:20;16.70;;;9.93;;
10442;SDS011;5269;51.146;16.986;2022-12-18T08:52:47;15.50;;;9.80;;
10442;SDS011;5269;51.146;16.986;2022-12-18T08:55:14;16.20;;;10.20;;
10442;SDS011;5269;51.146;16.986;2022-12-18T08:57:41;19.90;;;10.90;;
10442;SDS011;5269;51.146;16.986;2022-12-18T09:00:10;18.63;;;10.03;;
10442;SDS011;5269;51.146;16.986;2022-12-18T09:02:40;19.73;;;11.23;;
10442;SDS011;5269;51.146;16.986;2022-12-18T09:05:09;21.53;;;9.37;;
10442;SDS011;5269;51.146;16.986;2022-12-18T09:07:36;18.20;;;9.93;;
10442;SDS011;5269;51.146;16.986;2022-12-18T09:10:03;22.13;;;10.23;;
10442;SDS011;5269;51.146;16.986;2022-12-18T09:12:33;17.80;;;9.97;;
10442;SDS011;5269;51.146;16.986;2022-12-18T09:15:00;19.70;;;10.10;;
10442;SDS011;5269;51.146;16.986;2022-12-18T09:17:27;18.37;;;10.40;;
10442;SDS011;5269;51.146;16.986;2022-12-18T09:20:00;18.03;;;10.33;;
10442;SDS011;5269;51.146;16.986;2022-12-18T09:22:32;19.47;;;10.33;;
10442;SDS011;5269;51.146;16.986;2022-12-18T09:24:59;18.77;;;11.10;;
10442;SDS011;5269;51.146;16.986;2022-12-18T09:27:39;18.77;;;9.93;;
10442;SDS011;5269;51.146;16.986;2022-12-18T09:30:06;18.33;;;9.90;;
10442;SDS011;5269;51.146;16.986;2022-12-18T09:32:34;19.53;;;10.43;;
10442;SDS011;5269;51.146;16.986;2022-12-18T09:35:01;19.27;;;11.07;;
10442;SDS011;5269;51.146;16.986;2022-12-18T09:37:30;18.27;;;10.07;;
10442;SDS011;5269;51.146;16.986;2022-12-18T09:39:57;17.13;;;9.80;;
10442;SDS011;5269;51.146;16.986;2022-12-18T09:42:24;18.70;;;10.57;;
10442;SDS011;5269;51.146;16.986;2022-12-18T09:44:55;18.90;;;10.57;;
10442;SDS011;5269;51.146;16.986;2022-12-18T09:47:23;14.83;;;8.17;;
10442;SDS011;5269;51.146;16.986;2022-12-18T09:49:57;16.60;;;9.20;;
10442;SDS011;5269;51.146;16.986;2022-12-18T09:52:32;17.40;;;9.33;;
10442;SDS011;5269;51.146;16.986;2022-12-18T09:55:03;17.33;;;10.43;;
10442;SDS011;5269;51.146;16.986;2022-12-18T09:57:42;17.77;;;9.97;;
10442;SDS011;5269;51.146;16.986;2022-12-18T10:00:16;19.47;;;10.50;;
10442;SDS011;5269;51.146;16.986;2022-12-18T10:02:45;18.30;;;10.43;;
10442;SDS011;5269;51.146;16.986;2022-12-18T10:05:13;17.70;;;10.47;;
10442;SDS011;5269;51.146;16.986;2022-12-18T10:07:47;16.73;;;9.17;;
10442;SDS011;5269;51.146;16.986;2022-12-18T10:10:31;19.03;;;10.80;;
10442;SDS011;5269;51.146;16.986;2022-12-18T10:13:09;18.10;;;9.63;;
10442;SDS011;5269;51.146;16.986;2022-12-18T10:15:49;18.33;;;9.93;;
10442;SDS011;5269;51.146;16.986;2022-12-18T10:18:29;21.33;;;11.00;;
10442;SDS011;5269;51.146;16.986;2022-12-18T10:21:07;17.23;;;10.10;;
10442;SDS011;5269;51.146;16.986;2022-12-18T10:23:41;16.53;;;8.93;;
10442;SDS011;5269;51.146;16.986;2022-12-18T10:26:14;20.70;;;11.00;;
10442;SDS011;5269;51.146;16.986;2022-12-18T10:28:41;21.10;;;11.67;;
10442;SDS011;5269;51.146;16.986;2022-12-18T10:31:11;19.03;;;11.13;;
10442;SDS011;5269;51.146;16.986;2022-12-18T10:33:42;19.40;;;11.23;;
10442;SDS011;5269;51.146;16.986;2022-12-18T10:36:09;20.63;;;11.57;;
10442;SDS011;5269;51.146;16.986;2022-12-18T10:38:36;22.13;;;10.17;;
10442;SDS011;5269;51.146;16.986;2022-12-18T10:41:05;24.97;;;12.53;;
10442;SDS011;5269;51.146;16.986;2022-12-18T10:44:09;21.23;;;11.17;;
10442;SDS011;5269;51.146;16.986;2022-12-18T10:46:38;20.47;;;10.53;;
10442;SDS011;5269;51.146;16.986;2022-12-18T10:49:17;23.80;;;11.27;;
10442;SDS011;5269;51.146;16.986;2022-12-18T10:51:45;22.90;;;11.73;;
10442;SDS011;5269;51.146;16.986;2022-12-18T10:54:14;19.77;;;11.57;;
10442;SDS011;5269;51.146;16.986;2022-12-18T10:56:44;16.67;;;9.43;;
10442;SDS011;5269;51.146;16.986;2022-12-18T10:59:12;19.67;;;10.70;;
10442;SDS011;5269;51.146;16.986;2022-12-18T11:01:50;25.43;;;11.90;;
10442;SDS011;5269;51.146;16.986;2022-12-18T11:04:20;22.90;;;12.10;;
10442;SDS011;5269;51.146;16.986;2022-12-18T11:06:55;22.77;;;12.13;;
10442;SDS011;5269;51.146;16.986;2022-12-18T11:09:24;21.03;;;11.30;;
10442;SDS011;5269;51.146;16.986;2022-12-18T11:11:54;22.20;;;10.80;;
10442;SDS011;5269;51.146;16.986;2022-12-18T11:14:26;23.03;;;11.97;;
10442;SDS011;5269;51.146;16.986;2022-12-18T11:16:58;24.87;;;12.50;;
10442;SDS011;5269;51.146;16.986;2022-12-18T11:19:30;22.77;;;12.17;;
10442;SDS011;5269;51.146;16.986;2022-12-18T11:21:59;25.23;;;12.27;;
10442;SDS011;5269;51.146;16.986;2022-12-18T11:24:29;27.03;;;12.20;;
10442;SDS011;5269;51.146;16.986;2022-12-18T11:26:59;21.57;;;11.43;;
10442;SDS011;5269;51.146;16.986;2022-12-18T11:32:24;28.60;;;14.27;;
10442;SDS011;5269;51.146;16.986;2022-12-18T11:35:10;27.13;;;13.07;;
10442;SDS011;5269;51.146;16.986;2022-12-18T11:38:02;22.13;;;12.17;;
10442;SDS011;5269;51.146;16.986;2022-12-18T11:40:49;25.60;;;12.80;;
10442;SDS011;5269;51.146;16.986;2022-12-18T11:43:29;33.93;;;15.57;;
10442;SDS011;5269;51.146;16.986;2022-12-18T11:46:05;25.70;;;13.07;;
10442;SDS011;5269;51.146;16.986;2022-12-18T11:48:45;25.97;;;13.23;;
10442;SDS011;5269;51.146;16.986;2022-12-18T11:51:19;21.50;;;11.17;;
10442;SDS011;5269;51.146;16.986;2022-12-18T11:53:55;24.97;;;13.17;;
10442;SDS011;5269;51.146;16.986;2022-12-18T11:56:30;24.97;;;11.60;;
10442;SDS011;5269;51.146;16.986;2022-12-18T11:59:13;25.10;;;11.47;;
10442;SDS011;5269;51.146;16.986;2022-12-18T12:01:51;22.50;;;11.10;;
10442;SDS011;5269;51.146;16.986;2022-12-18T12:04:36;28.63;;;12.53;;
10442;SDS011;5269;51.146;16.986;2022-12-18T12:07:38;21.97;;;11.67;;
10442;SDS011;5269;51.146;16.986;2022-12-18T12:10:25;24.77;;;12.27;;
10442;SDS011;5269;51.146;16.986;2022-12-18T12:13:20;23.70;;;11.90;;
10442;SDS011;5269;51.146;16.986;2022-12-18T12:16:01;22.43;;;11.83;;
10442;SDS011;5269;51.146;16.986;2022-12-18T12:18:37;19.33;;;11.03;;
10442;SDS011;5269;51.146;16.986;2022-12-18T12:21:13;25.77;;;11.43;;
10442;SDS011;5269;51.146;16.986;2022-12-18T12:23:50;23.40;;;12.07;;
10442;SDS011;5269;51.146;16.986;2022-12-18T12:26:29;20.73;;;9.67;;
10442;SDS011;5269;51.146;16.986;2022-12-18T12:29:19;19.47;;;10.77;;
10442;SDS011;5269;51.146;16.986;2022-12-18T12:32:11;19.63;;;9.90;;
10442;SDS011;5269;51.146;16.986;2022-12-18T12:34:57;23.97;;;11.33;;
10442;SDS011;5269;51.146;16.986;2022-12-18T12:37:46;20.87;;;11.47;;
10442;SDS011;5269;51.146;16.986;2022-12-18T12:40:23;23.13;;;10.57;;
10442;SDS011;5269;51.146;16.986;2022-12-18T12:42:55;21.43;;;10.97;;
10442;SDS011;5269;51.146;16.986;2022-12-18T12:45:40;18.33;;;10.70;;
10442;SDS011;5269;51.146;16.986;2022-12-18T12:48:18;19.67;;;12.00;;
10442;SDS011;5269;51.146;16.986;2022-12-18T12:50:53;23.40;;;11.83;;
10442;SDS011;5269;51.146;16.986;2022-12-18T12:53:26;22.43;;;11.60;;
10442;SDS011;5269;51.146;16.986;2022-12-18T12:55:57;24.63;;;11.53;;
10442;SDS011;5269;51.146;16.986;2022-12-18T12:58:27;20.57;;;10.80;;
10442;SDS011;5269;51.146;16.986;2022-12-18T13:01:04;22.87;;;11.53;;
10442;SDS011;5269;51.146;16.986;2022-12-18T13:03:48;23.87;;;12.67;;
10442;SDS011;5269;51.146;16.986;2022-12-18T13:06:25;23.83;;;10.97;;
10442;SDS011;5269;51.146;16.986;2022-12-18T13:08:59;23.90;;;12.63;;
10442;SDS011;5269;51.146;16.986;2022-12-18T13:11:31;25.73;;;12.87;;
10442;SDS011;5269;51.146;16.986;2022-12-18T13:14:31;27.30;;;12.27;;
10442;SDS011;5269;51.146;16.986;2022-12-18T13:17:14;27.00;;;12.73;;
10442;SDS011;5269;51.146;16.986;2022-12-18T13:19:43;27.63;;;13.50;;
10442;SDS011;5269;51.146;16.986;2022-12-18T13:22:21;28.50;;;14.53;;
10442;SDS011;5269;51.146;16.986;2022-12-18T13:24:52;31.17;;;14.27;;
10442;SDS011;5269;51.146;16.986;2022-12-18T13:36:25;27.97;;;14.00;;
10442;SDS011;5269;51.146;16.986;2022-12-18T13:45:35;26.97;;;13.77;;
10442;SDS011;5269;51.146;16.986;2022-12-18T13:48:18;27.53;;;14.00;;
10442;SDS011;5269;51.146;16.986;2022-12-18T13:50:53;30.03;;;16.47;;
10442;SDS011;5269;51.146;16.986;2022-12-18T13:53:29;31.93;;;14.13;;
10442;SDS011;5269;51.146;16.986;2022-12-18T13:56:00;24.47;;;12.70;;
10442;SDS011;5269;51.146;16.986;2022-12-18T13:58:30;28.10;;;14.37;;
10442;SDS011;5269;51.146;16.986;2022-12-18T14:00:58;27.10;;;14.50;;
10442;SDS011;5269;51.146;16.986;2022-12-18T14:03:27;30.97;;;14.07;;
10442;SDS011;5269;51.146;16.986;2022-12-18T14:05:56;27.97;;;13.10;;
10442;SDS011;5269;51.146;16.986;2022-12-18T14:08:35;25.43;;;13.00;;
10442;SDS011;5269;51.146;16.986;2022-12-18T14:11:11;27.43;;;13.83;;
10442;SDS011;5269;51.146;16.986;2022-12-18T14:13:46;28.43;;;13.23;;
10442;SDS011;5269;51.146;16.986;2022-12-18T14:16:13;26.67;;;14.50;;
10442;SDS011;5269;51.146;16.986;2022-12-18T14:18:44;24.57;;;12.83;;
10442;SDS011;5269;51.146;16.986;2022-12-18T14:21:17;29.60;;;14.30;;
10442;SDS011;5269;51.146;16.986;2022-12-18T14:23:50;27.43;;;12.90;;
10442;SDS011;5269;51.146;16.986;2022-12-18T14:26:30;26.53;;;14.13;;
10442;SDS011;5269;51.146;16.986;2022-12-18T14:28:59;25.57;;;12.17;;
10442;SDS011;5269;51.146;16.986;2022-12-18T14:31:28;27.20;;;13.10;;
10442;SDS011;5269;51.146;16.986;2022-12-18T14:33:56;28.50;;;13.73;;
10442;SDS011;5269;51.146;16.986;2022-12-18T14:36:24;27.83;;;12.83;;
10442;SDS011;5269;51.146;16.986;2022-12-18T14:38:56;29.17;;;13.43;;
10442;SDS011;5269;51.146;16.986;2022-12-18T14:41:26;25.17;;;12.40;;
10442;SDS011;5269;51.146;16.986;2022-12-18T14:43:56;23.70;;;12.00;;
10442;SDS011;5269;51.146;16.986;2022-12-18T14:46:51;26.47;;;12.07;;
10442;SDS011;5269;51.146;16.986;2022-12-18T14:49:23;23.77;;;12.37;;
10442;SDS011;5269;51.146;16.986;2022-12-18T14:51:54;26.27;;;13.17;;
10442;SDS011;5269;51.146;16.986;2022-12-18T14:54:27;28.60;;;13.40;;
10442;SDS011;5269;51.146;16.986;2022-12-18T15:00:17;26.40;;;11.93;;
10442;SDS011;5269;51.146;16.986;2022-12-18T15:02:50;33.03;;;14.83;;
10442;SDS011;5269;51.146;16.986;2022-12-18T15:05:28;25.73;;;12.93;;
10442;SDS011;5269;51.146;16.986;2022-12-18T15:07:59;28.03;;;12.83;;
10442;SDS011;5269;51.146;16.986;2022-12-18T15:10:28;29.37;;;15.63;;
10442;SDS011;5269;51.146;16.986;2022-12-18T15:13:15;28.50;;;14.20;;
10442;SDS011;5269;51.146;16.986;2022-12-18T15:15:55;28.70;;;16.33;;